sensor_id;sensor_type;location;lat;lon;timestamp;P1;durP1;ratioP1;P2;durP2;ratioP2
82255;SDS011;72145;34.434;-117.370;2023-09-19T00:00:11;218.95;;;175.88;;
82255;SDS011;72145;34.434;-117.370;2023-09-19T00:00:45;218.57;;;193.18;;
82255;SDS011;72145;34.434;-117.370;2023-09-19T00:01:44;216.88;;;193.02;;
82255;SDS011;72145;34.434;-117.370;2023-09-19T00:02:20;210.25;;;186.80;;
82255;SDS011;72145;34.434;-117.370;2023-09-19T00:02:54;226.05;;;201.82;;
82255;SDS011;72145;34.434;-117.370;2023-09-19T00:03:33;216.15;;;192.35;;
82255;SDS011;72145;34.434;-117.370;2023-09-19T00:04:10;220.63;;;197.70;;
82255;SDS011;72145;34.434;-117.370;2023-09-19T00:04:45;214.35;;;187.40;;
82255;SDS011;72145;34.434;-117.370;2023-09-19T00:05:21;206.35;;;184.95;;
82255;SDS011;72145;34.434;-117.370;2023-09-19T00:05:57;186.63;;;166.98;;
82255;SDS011;72145;34.434;-117.370;2023-09-19T00:06:34;166.88;;;148.80;;
82255;SDS011;72145;34.434;-117.370;2023-09-19T00:07:07;168.25;;;150.00;;
82255;SDS011;72145;34.434;-117.370;2023-09-19T00:07:41;167.38;;;149.15;;
82255;SDS011;72145;34.434;-117.370;2023-09-19T00:08:14;163.82;;;141.40;;
82255;SDS011;72145;34.434;-117.370;2023-09-19T00:08:47;180.93;;;162.18;;
82255;SDS011;72145;34.434;-117.370;2023-09-19T00:09:23;176.90;;;150.05;;
82255;SDS011;72145;34.434;-117.370;2023-09-19T00:10:03;191.77;;;170.95;;
82255;SDS011;72145;34.434;-117.370;2023-09-19T00:10:37;188.95;;;168.35;;
82255;SDS011;72145;34.434;-117.370;2023-09-19T00:11:12;181.35;;;156.65;;
82255;SDS011;72145;34.434;-117.370;2023-09-19T00:11:49;180.05;;;154.23;;
82255;SDS011;72145;34.434;-117.370;2023-09-19T00:12:23;200.57;;;168.35;;
82255;SDS011;72145;34.434;-117.370;2023-09-19T00:12:59;198.30;;;165.75;;
82255;SDS011;72145;34.434;-117.370;2023-09-19T00:13:50;207.95;;;169.85;;
82255;SDS011;72145;34.434;-117.370;2023-09-19T00:14:29;207.45;;;179.45;;
82255;SDS011;72145;34.434;-117.370;2023-09-19T00:15:02;205.40;;;176.25;;
82255;SDS011;72145;34.434;-117.370;2023-09-19T00:15:39;207.98;;;184.73;;
82255;SDS011;72145;34.434;-117.370;2023-09-19T00:16:21;190.48;;;161.93;;
82255;SDS011;72145;34.434;-117.370;2023-09-19T00:16:58;189.23;;;164.50;;
82255;SDS011;72145;34.434;-117.370;2023-09-19T00:17:33;186.13;;;158.63;;
82255;SDS011;72145;34.434;-117.370;2023-09-19T00:18:07;211.60;;;189.82;;
82255;SDS011;72145;34.434;-117.370;2023-09-19T00:19:21;185.48;;;165.32;;
82255;SDS011;72145;34.434;-117.370;2023-09-19T00:19:56;203.18;;;182.57;;
82255;SDS011;72145;34.434;-117.370;2023-09-19T00:20:29;187.98;;;167.48;;
82255;SDS011;72145;34.434;-117.370;2023-09-19T00:21:03;179.98;;;160.38;;
82255;SDS011;72145;34.434;-117.370;2023-09-19T00:21:47;185.93;;;165.98;;
82255;SDS011;72145;34.434;-117.370;2023-09-19T00:22:23;197.45;;;177.55;;
82255;SDS011;72145;34.434;-117.370;2023-09-19T00:22:59;178.48;;;159.32;;
82255;SDS011;72145;34.434;-117.370;2023-09-19T00:23:40;185.35;;;166.10;;
82255;SDS011;72145;34.434;-117.370;2023-09-19T00:24:14;206.30;;;186.55;;
82255;SDS011;72145;34.434;-117.370;2023-09-19T00:24:49;202.20;;;181.85;;
82255;SDS011;72145;34.434;-117.370;2023-09-19T00:25:24;175.20;;;157.90;;
82255;SDS011;72145;34.434;-117.370;2023-09-19T00:26:00;178.60;;;160.35;;
82255;SDS011;72145;34.434;-117.370;2023-09-19T00:26:34;190.95;;;171.95;;
82255;SDS011;72145;34.434;-117.370;2023-09-19T00:27:07;190.65;;;171.75;;
82255;SDS011;72145;34.434;-117.370;2023-09-19T00:27:40;167.07;;;149.32;;
82255;SDS011;72145;34.434;-117.370;2023-09-19T00:28:17;176.50;;;158.32;;
82255;SDS011;72145;34.434;-117.370;2023-09-19T00:28:55;204.63;;;184.98;;
82255;SDS011;72145;34.434;-117.370;2023-09-19T00:29:29;195.70;;;176.73;;
82255;SDS011;72145;34.434;-117.370;2023-09-19T00:30:04;171.45;;;153.48;;
82255;SDS011;72145;34.434;-117.370;2023-09-19T00:30:38;168.20;;;150.60;;
82255;SDS011;72145;34.434;-117.370;2023-09-19T00:31:11;189.40;;;171.13;;
82255;SDS011;72145;34.434;-117.370;2023-09-19T00:31:45;192.63;;;174.27;;
82255;SDS011;72145;34.434;-117.370;2023-09-19T00:32:20;176.15;;;158.18;;
82255;SDS011;72145;34.434;-117.370;2023-09-19T00:32:59;184.77;;;166.68;;
82255;SDS011;72145;34.434;-117.370;2023-09-19T00:33:38;182.30;;;164.00;;
82255;SDS011;72145;34.434;-117.370;2023-09-19T00:34:11;168.98;;;151.40;;
82255;SDS011;72145;34.434;-117.370;2023-09-19T00:34:45;187.07;;;169.18;;
82255;SDS011;72145;34.434;-117.370;2023-09-19T00:35:21;168.35;;;151.25;;
82255;SDS011;72145;34.434;-117.370;2023-09-19T00:35:57;170.85;;;153.32;;
82255;SDS011;72145;34.434;-117.370;2023-09-19T00:36:33;161.95;;;145.13;;
82255;SDS011;72145;34.434;-117.370;2023-09-19T00:37:06;165.65;;;148.48;;
82255;SDS011;72145;34.434;-117.370;2023-09-19T00:37:40;182.27;;;163.90;;
82255;SDS011;72145;34.434;-117.370;2023-09-19T00:38:13;180.88;;;162.65;;
82255;SDS011;72145;34.434;-117.370;2023-09-19T00:38:50;183.40;;;165.07;;
82255;SDS011;72145;34.434;-117.370;2023-09-19T00:39:23;207.95;;;188.77;;
82255;SDS011;72145;34.434;-117.370;2023-09-19T00:39:59;192.02;;;173.65;;
82255;SDS011;72145;34.434;-117.370;2023-09-19T00:40:32;168.30;;;151.07;;
82255;SDS011;72145;34.434;-117.370;2023-09-19T00:41:05;166.15;;;149.23;;
82255;SDS011;72145;34.434;-117.370;2023-09-19T00:41:39;190.85;;;172.98;;
82255;SDS011;72145;34.434;-117.370;2023-09-19T00:42:21;162.80;;;146.15;;
82255;SDS011;72145;34.434;-117.370;2023-09-19T00:42:57;190.10;;;171.90;;
82255;SDS011;72145;34.434;-117.370;2023-09-19T00:43:36;169.57;;;151.52;;
82255;SDS011;72145;34.434;-117.370;2023-09-19T00:44:09;159.75;;;142.75;;
82255;SDS011;72145;34.434;-117.370;2023-09-19T00:44:44;185.43;;;167.23;;
82255;SDS011;72145;34.434;-117.370;2023-09-19T00:45:23;160.68;;;143.57;;
82255;SDS011;72145;34.434;-117.370;2023-09-19T00:45:56;174.98;;;157.77;;
82255;SDS011;72145;34.434;-117.370;2023-09-19T00:46:30;167.05;;;150.43;;
82255;SDS011;72145;34.434;-117.370;2023-09-19T00:47:05;163.30;;;146.98;;
82255;SDS011;72145;34.434;-117.370;2023-09-19T00:47:39;167.63;;;151.00;;
82255;SDS011;72145;34.434;-117.370;2023-09-19T00:48:17;152.90;;;136.82;;
82255;SDS011;72145;34.434;-117.370;2023-09-19T00:48:51;155.75;;;139.68;;
82255;SDS011;72145;34.434;-117.370;2023-09-19T00:49:29;151.48;;;135.38;;
82255;SDS011;72145;34.434;-117.370;2023-09-19T00:50:06;172.15;;;154.90;;
82255;SDS011;72145;34.434;-117.370;2023-09-19T00:50:42;167.38;;;150.48;;
82255;SDS011;72145;34.434;-117.370;2023-09-19T00:51:21;159.95;;;143.85;;
82255;SDS011;72145;34.434;-117.370;2023-09-19T00:51:57;161.15;;;145.30;;
82255;SDS011;72145;34.434;-117.370;2023-09-19T00:52:32;174.63;;;157.60;;
82255;SDS011;72145;34.434;-117.370;2023-09-19T00:53:05;172.10;;;155.43;;
82255;SDS011;72145;34.434;-117.370;2023-09-19T00:53:40;156.68;;;140.60;;
82255;SDS011;72145;34.434;-117.370;2023-09-19T00:54:18;149.50;;;134.10;;
82255;SDS011;72145;34.434;-117.370;2023-09-19T00:54:52;154.15;;;138.25;;
82255;SDS011;72145;34.434;-117.370;2023-09-19T00:55:29;155.55;;;139.50;;
82255;SDS011;72145;34.434;-117.370;2023-09-19T00:56:05;166.38;;;150.40;;
82255;SDS011;72145;34.434;-117.370;2023-09-19T00:56:42;205.45;;;187.38;;
82255;SDS011;72145;34.434;-117.370;2023-09-19T00:57:15;183.77;;;166.70;;
82255;SDS011;72145;34.434;-117.370;2023-09-19T00:57:51;190.20;;;173.38;;
82255;SDS011;72145;34.434;-117.370;2023-09-19T00:58:25;186.18;;;168.75;;
82255;SDS011;72145;34.434;-117.370;2023-09-19T00:59:05;194.05;;;176.68;;
82255;SDS011;72145;34.434;-117.370;2023-09-19T00:59:39;198.15;;;180.70;;
82255;SDS011;72145;34.434;-117.370;2023-09-19T01:00:15;187.82;;;170.30;;
82255;SDS011;72145;34.434;-117.370;2023-09-19T01:00:58;195.85;;;177.75;;
82255;SDS011;72145;34.434;-117.370;2023-09-19T01:01:36;190.40;;;172.70;;
82255;SDS011;72145;34.434;-117.370;2023-09-19T01:02:16;194.13;;;176.02;;
82255;SDS011;72145;34.434;-117.370;2023-09-19T01:02:53;178.27;;;161.02;;
82255;SDS011;72145;34.434;-117.370;2023-09-19T01:03:27;169.98;;;153.40;;
82255;SDS011;72145;34.434;-117.370;2023-09-19T01:04:04;195.65;;;178.35;;
82255;SDS011;72145;34.434;-117.370;2023-09-19T01:04:40;187.15;;;169.77;;
82255;SDS011;72145;34.434;-117.370;2023-09-19T01:05:16;176.02;;;158.98;;
82255;SDS011;72145;34.434;-117.370;2023-09-19T01:05:50;170.75;;;154.02;;
82255;SDS011;72145;34.434;-117.370;2023-09-19T01:06:24;168.00;;;150.95;;
82255;SDS011;72145;34.434;-117.370;2023-09-19T01:06:58;171.63;;;154.82;;
82255;SDS011;72145;34.434;-117.370;2023-09-19T01:07:36;157.85;;;142.15;;
82255;SDS011;72145;34.434;-117.370;2023-09-19T01:08:20;156.80;;;141.02;;
82255;SDS011;72145;34.434;-117.370;2023-09-19T01:08:53;157.35;;;141.70;;
82255;SDS011;72145;34.434;-117.370;2023-09-19T01:09:28;162.15;;;146.50;;
82255;SDS011;72145;34.434;-117.370;2023-09-19T01:10:03;160.07;;;144.88;;
82255;SDS011;72145;34.434;-117.370;2023-09-19T01:10:51;165.65;;;149.75;;
82255;SDS011;72145;34.434;-117.370;2023-09-19T01:11:32;184.77;;;167.43;;
82255;SDS011;72145;34.434;-117.370;2023-09-19T01:12:13;189.88;;;172.60;;
82255;SDS011;72145;34.434;-117.370;2023-09-19T01:15:10;187.73;;;170.25;;
82255;SDS011;72145;34.434;-117.370;2023-09-19T01:16:50;208.73;;;190.80;;
82255;SDS011;72145;34.434;-117.370;2023-09-19T01:17:38;192.70;;;175.57;;
82255;SDS011;72145;34.434;-117.370;2023-09-19T01:21:22;170.70;;;155.02;;
82255;SDS011;72145;34.434;-117.370;2023-09-19T01:22:20;194.60;;;177.98;;
82255;SDS011;72145;34.434;-117.370;2023-09-19T01:26:04;194.20;;;177.43;;
82255;SDS011;72145;34.434;-117.370;2023-09-19T01:28:29;195.35;;;178.85;;
82255;SDS011;72145;34.434;-117.370;2023-09-19T01:30:17;174.90;;;159.18;;
82255;SDS011;72145;34.434;-117.370;2023-09-19T01:30:59;198.57;;;182.23;;
82255;SDS011;72145;34.434;-117.370;2023-09-19T01:31:35;190.35;;;174.77;;
82255;SDS011;72145;34.434;-117.370;2023-09-19T01:32:11;171.45;;;157.00;;
82255;SDS011;72145;34.434;-117.370;2023-09-19T01:32:51;172.45;;;157.77;;
82255;SDS011;72145;34.434;-117.370;2023-09-19T01:33:24;200.60;;;184.65;;
82255;SDS011;72145;34.434;-117.370;2023-09-19T01:34:06;173.95;;;158.18;;
82255;SDS011;72145;34.434;-117.370;2023-09-19T01:34:46;169.43;;;154.40;;
82255;SDS011;72145;34.434;-117.370;2023-09-19T01:35:22;170.68;;;155.98;;
82255;SDS011;72145;34.434;-117.370;2023-09-19T01:35:55;180.30;;;165.38;;
82255;SDS011;72145;34.434;-117.370;2023-09-19T01:36:34;172.27;;;157.73;;
82255;SDS011;72145;34.434;-117.370;2023-09-19T01:37:08;197.98;;;181.38;;
82255;SDS011;72145;34.434;-117.370;2023-09-19T01:37:41;170.27;;;154.40;;
82255;SDS011;72145;34.434;-117.370;2023-09-19T01:38:15;204.35;;;187.77;;
82255;SDS011;72145;34.434;-117.370;2023-09-19T01:38:52;208.50;;;191.20;;
82255;SDS011;72145;34.434;-117.370;2023-09-19T01:39:29;179.90;;;164.57;;
82255;SDS011;72145;34.434;-117.370;2023-09-19T01:40:03;185.45;;;170.65;;
82255;SDS011;72145;34.434;-117.370;2023-09-19T01:40:56;206.75;;;190.75;;
82255;SDS011;72145;34.434;-117.370;2023-09-19T01:44:04;206.60;;;190.40;;
82255;SDS011;72145;34.434;-117.370;2023-09-19T01:44:49;202.30;;;185.95;;
82255;SDS011;72145;34.434;-117.370;2023-09-19T01:46:35;214.30;;;198.20;;
82255;SDS011;72145;34.434;-117.370;2023-09-19T01:47:34;174.88;;;160.45;;
82255;SDS011;72145;34.434;-117.370;2023-09-19T01:50:11;204.18;;;189.48;;
82255;SDS011;72145;34.434;-117.370;2023-09-19T01:51:00;180.10;;;165.90;;
82255;SDS011;72145;34.434;-117.370;2023-09-19T01:52:12;185.98;;;171.82;;
82255;SDS011;72145;34.434;-117.370;2023-09-19T01:52:49;186.52;;;172.73;;
82255;SDS011;72145;34.434;-117.370;2023-09-19T01:53:45;189.43;;;175.32;;
82255;SDS011;72145;34.434;-117.370;2023-09-19T01:54:40;214.75;;;200.18;;
82255;SDS011;72145;34.434;-117.370;2023-09-19T01:55:54;184.73;;;170.93;;
82255;SDS011;72145;34.434;-117.370;2023-09-19T01:56:36;188.05;;;174.35;;
82255;SDS011;72145;34.434;-117.370;2023-09-19T01:58:07;206.63;;;192.45;;
82255;SDS011;72145;34.434;-117.370;2023-09-19T01:58:48;176.57;;;163.55;;
82255;SDS011;72145;34.434;-117.370;2023-09-19T01:59:30;177.23;;;164.05;;
82255;SDS011;72145;34.434;-117.370;2023-09-19T02:00:10;186.38;;;172.65;;
82255;SDS011;72145;34.434;-117.370;2023-09-19T02:00:44;210.80;;;196.30;;
82255;SDS011;72145;34.434;-117.370;2023-09-19T02:01:24;179.63;;;166.25;;
82255;SDS011;72145;34.434;-117.370;2023-09-19T02:01:59;181.18;;;167.75;;
82255;SDS011;72145;34.434;-117.370;2023-09-19T02:02:37;224.13;;;209.52;;
82255;SDS011;72145;34.434;-117.370;2023-09-19T02:03:12;223.60;;;208.45;;
82255;SDS011;72145;34.434;-117.370;2023-09-19T02:03:49;194.95;;;180.73;;
82255;SDS011;72145;34.434;-117.370;2023-09-19T02:04:23;220.90;;;206.02;;
82255;SDS011;72145;34.434;-117.370;2023-09-19T02:04:57;191.57;;;177.73;;
82255;SDS011;72145;34.434;-117.370;2023-09-19T02:05:33;218.38;;;203.63;;
82255;SDS011;72145;34.434;-117.370;2023-09-19T02:06:09;175.07;;;161.70;;
82255;SDS011;72145;34.434;-117.370;2023-09-19T02:06:50;180.48;;;166.55;;
82255;SDS011;72145;34.434;-117.370;2023-09-19T02:07:24;184.38;;;170.73;;
82255;SDS011;72145;34.434;-117.370;2023-09-19T02:07:57;202.20;;;187.77;;
82255;SDS011;72145;34.434;-117.370;2023-09-19T02:08:37;180.93;;;167.60;;
82255;SDS011;72145;34.434;-117.370;2023-09-19T02:09:11;199.38;;;185.07;;
82255;SDS011;72145;34.434;-117.370;2023-09-19T02:09:45;181.98;;;168.43;;
82255;SDS011;72145;34.434;-117.370;2023-09-19T02:10:20;202.88;;;188.63;;
82255;SDS011;72145;34.434;-117.370;2023-09-19T02:10:56;199.23;;;185.00;;
82255;SDS011;72145;34.434;-117.370;2023-09-19T02:11:29;174.82;;;161.70;;
82255;SDS011;72145;34.434;-117.370;2023-09-19T02:12:02;175.35;;;161.75;;
82255;SDS011;72145;34.434;-117.370;2023-09-19T02:12:43;174.95;;;161.77;;
82255;SDS011;72145;34.434;-117.370;2023-09-19T02:13:22;206.27;;;192.07;;
82255;SDS011;72145;34.434;-117.370;2023-09-19T02:14:00;206.43;;;192.35;;
82255;SDS011;72145;34.434;-117.370;2023-09-19T02:14:34;188.38;;;175.05;;
82255;SDS011;72145;34.434;-117.370;2023-09-19T02:15:11;176.63;;;163.80;;
82255;SDS011;72145;34.434;-117.370;2023-09-19T02:15:44;185.98;;;172.60;;
82255;SDS011;72145;34.434;-117.370;2023-09-19T02:16:18;210.65;;;196.43;;
82255;SDS011;72145;34.434;-117.370;2023-09-19T02:16:52;197.63;;;183.73;;
82255;SDS011;72145;34.434;-117.370;2023-09-19T02:17:27;210.57;;;196.30;;
82255;SDS011;72145;34.434;-117.370;2023-09-19T02:18:00;182.38;;;168.93;;
82255;SDS011;72145;34.434;-117.370;2023-09-19T02:18:35;200.10;;;186.05;;
82255;SDS011;72145;34.434;-117.370;2023-09-19T02:19:08;178.15;;;164.82;;
82255;SDS011;72145;34.434;-117.370;2023-09-19T02:19:41;188.32;;;174.88;;
82255;SDS011;72145;34.434;-117.370;2023-09-19T02:20:17;212.32;;;197.85;;
82255;SDS011;72145;34.434;-117.370;2023-09-19T02:20:56;190.77;;;177.30;;
82255;SDS011;72145;34.434;-117.370;2023-09-19T02:21:31;217.60;;;203.25;;
82255;SDS011;72145;34.434;-117.370;2023-09-19T02:22:05;175.38;;;162.68;;
82255;SDS011;72145;34.434;-117.370;2023-09-19T02:22:40;193.00;;;179.52;;
82255;SDS011;72145;34.434;-117.370;2023-09-19T02:23:14;187.57;;;174.38;;
82255;SDS011;72145;34.434;-117.370;2023-09-19T02:23:48;190.48;;;177.23;;
82255;SDS011;72145;34.434;-117.370;2023-09-19T02:24:21;223.70;;;208.57;;
82255;SDS011;72145;34.434;-117.370;2023-09-19T02:24:59;196.60;;;182.55;;
82255;SDS011;72145;34.434;-117.370;2023-09-19T02:25:37;219.98;;;205.75;;
82255;SDS011;72145;34.434;-117.370;2023-09-19T02:26:15;205.60;;;191.85;;
82255;SDS011;72145;34.434;-117.370;2023-09-19T02:26:48;195.00;;;181.98;;
82255;SDS011;72145;34.434;-117.370;2023-09-19T02:27:24;192.93;;;179.63;;
82255;SDS011;72145;34.434;-117.370;2023-09-19T02:27:57;213.48;;;199.23;;
82255;SDS011;72145;34.434;-117.370;2023-09-19T02:28:33;191.52;;;177.93;;
82255;SDS011;72145;34.434;-117.370;2023-09-19T02:29:08;214.45;;;200.15;;
82255;SDS011;72145;34.434;-117.370;2023-09-19T02:29:45;185.40;;;172.20;;
82255;SDS011;72145;34.434;-117.370;2023-09-19T02:30:18;214.55;;;200.15;;
82255;SDS011;72145;34.434;-117.370;2023-09-19T02:30:52;215.50;;;201.30;;
82255;SDS011;72145;34.434;-117.370;2023-09-19T02:31:25;219.48;;;205.30;;
82255;SDS011;72145;34.434;-117.370;2023-09-19T02:32:02;185.68;;;173.00;;
82255;SDS011;72145;34.434;-117.370;2023-09-19T02:32:36;212.15;;;198.02;;
82255;SDS011;72145;34.434;-117.370;2023-09-19T02:33:11;189.00;;;175.90;;
82255;SDS011;72145;34.434;-117.370;2023-09-19T02:33:44;216.93;;;202.75;;
82255;SDS011;72145;34.434;-117.370;2023-09-19T02:34:20;187.48;;;174.93;;
82255;SDS011;72145;34.434;-117.370;2023-09-19T02:34:56;222.15;;;208.10;;
82255;SDS011;72145;34.434;-117.370;2023-09-19T02:35:32;207.65;;;194.10;;
82255;SDS011;72145;34.434;-117.370;2023-09-19T02:36:08;207.18;;;193.48;;
82255;SDS011;72145;34.434;-117.370;2023-09-19T02:36:45;211.38;;;197.77;;
82255;SDS011;72145;34.434;-117.370;2023-09-19T02:37:18;169.40;;;157.23;;
82255;SDS011;72145;34.434;-117.370;2023-09-19T02:37:51;206.00;;;192.52;;
82255;SDS011;72145;34.434;-117.370;2023-09-19T02:38:25;208.10;;;194.40;;
82255;SDS011;72145;34.434;-117.370;2023-09-19T02:38:59;199.02;;;185.57;;
82255;SDS011;72145;34.434;-117.370;2023-09-19T02:39:33;175.32;;;162.50;;
82255;SDS011;72145;34.434;-117.370;2023-09-19T02:40:06;212.45;;;198.15;;
82255;SDS011;72145;34.434;-117.370;2023-09-19T02:40:51;220.80;;;206.38;;
82255;SDS011;72145;34.434;-117.370;2023-09-19T02:41:25;186.23;;;173.07;;
82255;SDS011;72145;34.434;-117.370;2023-09-19T02:41:58;215.02;;;200.75;;
82255;SDS011;72145;34.434;-117.370;2023-09-19T02:42:31;190.60;;;176.75;;
82255;SDS011;72145;34.434;-117.370;2023-09-19T02:43:07;192.82;;;179.18;;
82255;SDS011;72145;34.434;-117.370;2023-09-19T02:43:41;222.95;;;208.40;;
82255;SDS011;72145;34.434;-117.370;2023-09-19T02:44:15;199.27;;;185.18;;
82255;SDS011;72145;34.434;-117.370;2023-09-19T02:44:48;219.27;;;204.43;;
82255;SDS011;72145;34.434;-117.370;2023-09-19T02:45:21;195.32;;;181.45;;
82255;SDS011;72145;34.434;-117.370;2023-09-19T02:45:55;228.40;;;213.60;;
82255;SDS011;72145;34.434;-117.370;2023-09-19T02:46:29;227.07;;;212.45;;
82255;SDS011;72145;34.434;-117.370;2023-09-19T02:47:02;203.57;;;189.57;;
82255;SDS011;72145;34.434;-117.370;2023-09-19T02:47:42;208.18;;;193.93;;
82255;SDS011;72145;34.434;-117.370;2023-09-19T02:48:15;212.95;;;198.57;;
82255;SDS011;72145;34.434;-117.370;2023-09-19T02:48:50;208.88;;;194.57;;
82255;SDS011;72145;34.434;-117.370;2023-09-19T02:49:24;198.77;;;184.98;;
82255;SDS011;72145;34.434;-117.370;2023-09-19T02:49:57;203.43;;;189.68;;
82255;SDS011;72145;34.434;-117.370;2023-09-19T02:50:30;237.18;;;222.27;;
82255;SDS011;72145;34.434;-117.370;2023-09-19T02:51:03;230.35;;;215.70;;
82255;SDS011;72145;34.434;-117.370;2023-09-19T02:51:42;237.23;;;222.40;;
82255;SDS011;72145;34.434;-117.370;2023-09-19T02:52:22;194.38;;;181.27;;
82255;SDS011;72145;34.434;-117.370;2023-09-19T02:52:57;200.07;;;186.65;;
82255;SDS011;72145;34.434;-117.370;2023-09-19T02:53:33;197.65;;;184.27;;
82255;SDS011;72145;34.434;-117.370;2023-09-19T02:54:07;181.02;;;168.27;;
82255;SDS011;72145;34.434;-117.370;2023-09-19T02:54:43;184.70;;;171.40;;
82255;SDS011;72145;34.434;-117.370;2023-09-19T02:55:17;197.25;;;183.77;;
82255;SDS011;72145;34.434;-117.370;2023-09-19T02:55:52;205.15;;;191.63;;
82255;SDS011;72145;34.434;-117.370;2023-09-19T02:56:25;211.43;;;197.40;;
82255;SDS011;72145;34.434;-117.370;2023-09-19T02:56:59;217.90;;;203.82;;
82255;SDS011;72145;34.434;-117.370;2023-09-19T02:57:32;190.18;;;177.05;;
82255;SDS011;72145;34.434;-117.370;2023-09-19T02:58:05;202.57;;;189.10;;
82255;SDS011;72145;34.434;-117.370;2023-09-19T02:58:47;195.38;;;181.63;;
82255;SDS011;72145;34.434;-117.370;2023-09-19T02:59:21;221.43;;;207.32;;
82255;SDS011;72145;34.434;-117.370;2023-09-19T02:59:54;211.18;;;196.90;;
82255;SDS011;72145;34.434;-117.370;2023-09-19T03:00:27;212.13;;;198.02;;
82255;SDS011;72145;34.434;-117.370;2023-09-19T03:01:11;217.73;;;203.38;;
82255;SDS011;72145;34.434;-117.370;2023-09-19T03:01:45;223.77;;;209.38;;
82255;SDS011;72145;34.434;-117.370;2023-09-19T03:02:20;212.55;;;198.48;;
82255;SDS011;72145;34.434;-117.370;2023-09-19T03:02:56;210.60;;;196.60;;
82255;SDS011;72145;34.434;-117.370;2023-09-19T03:03:30;217.68;;;203.10;;
82255;SDS011;72145;34.434;-117.370;2023-09-19T03:04:04;201.65;;;187.98;;
82255;SDS011;72145;34.434;-117.370;2023-09-19T03:04:45;212.43;;;198.32;;
82255;SDS011;72145;34.434;-117.370;2023-09-19T03:05:19;214.73;;;200.45;;
82255;SDS011;72145;34.434;-117.370;2023-09-19T03:06:02;220.27;;;205.60;;
82255;SDS011;72145;34.434;-117.370;2023-09-19T03:06:36;213.93;;;199.57;;
82255;SDS011;72145;34.434;-117.370;2023-09-19T03:07:11;205.50;;;191.38;;
82255;SDS011;72145;34.434;-117.370;2023-09-19T03:07:44;185.18;;;171.68;;
82255;SDS011;72145;34.434;-117.370;2023-09-19T03:08:23;190.57;;;177.10;;
82255;SDS011;72145;34.434;-117.370;2023-09-19T03:09:01;193.55;;;180.00;;
82255;SDS011;72145;34.434;-117.370;2023-09-19T03:09:44;197.50;;;184.10;;
82255;SDS011;72145;34.434;-117.370;2023-09-19T03:10:17;231.98;;;216.90;;
82255;SDS011;72145;34.434;-117.370;2023-09-19T03:11:12;198.30;;;184.93;;
82255;SDS011;72145;34.434;-117.370;2023-09-19T03:11:53;232.80;;;218.02;;
82255;SDS011;72145;34.434;-117.370;2023-09-19T03:12:30;192.50;;;178.98;;
82255;SDS011;72145;34.434;-117.370;2023-09-19T03:13:06;193.18;;;179.88;;
82255;SDS011;72145;34.434;-117.370;2023-09-19T03:13:42;204.95;;;191.10;;
82255;SDS011;72145;34.434;-117.370;2023-09-19T03:14:16;224.57;;;210.07;;
82255;SDS011;72145;34.434;-117.370;2023-09-19T03:14:55;199.60;;;185.80;;
82255;SDS011;72145;34.434;-117.370;2023-09-19T03:15:32;231.07;;;216.30;;
82255;SDS011;72145;34.434;-117.370;2023-09-19T03:16:05;216.35;;;202.55;;
82255;SDS011;72145;34.434;-117.370;2023-09-19T03:16:38;209.75;;;195.98;;
82255;SDS011;72145;34.434;-117.370;2023-09-19T03:17:11;217.55;;;203.73;;
82255;SDS011;72145;34.434;-117.370;2023-09-19T03:17:47;194.57;;;181.70;;
82255;SDS011;72145;34.434;-117.370;2023-09-19T03:18:21;226.77;;;212.77;;
82255;SDS011;72145;34.434;-117.370;2023-09-19T03:18:55;223.15;;;209.15;;
82255;SDS011;72145;34.434;-117.370;2023-09-19T03:19:30;224.85;;;210.27;;
82255;SDS011;72145;34.434;-117.370;2023-09-19T03:20:07;194.35;;;181.20;;
82255;SDS011;72145;34.434;-117.370;2023-09-19T03:20:41;188.20;;;175.43;;
82255;SDS011;72145;34.434;-117.370;2023-09-19T03:21:15;213.90;;;200.13;;
82255;SDS011;72145;34.434;-117.370;2023-09-19T03:21:49;209.07;;;195.32;;
82255;SDS011;72145;34.434;-117.370;2023-09-19T03:22:33;188.40;;;175.68;;
82255;SDS011;72145;34.434;-117.370;2023-09-19T03:23:06;190.23;;;177.27;;
82255;SDS011;72145;34.434;-117.370;2023-09-19T03:23:40;223.65;;;209.45;;
82255;SDS011;72145;34.434;-117.370;2023-09-19T03:24:17;190.05;;;176.50;;
82255;SDS011;72145;34.434;-117.370;2023-09-19T03:24:50;229.10;;;214.02;;
82255;SDS011;72145;34.434;-117.370;2023-09-19T03:25:26;217.65;;;203.10;;
82255;SDS011;72145;34.434;-117.370;2023-09-19T03:26:01;223.07;;;208.35;;
82255;SDS011;72145;34.434;-117.370;2023-09-19T03:26:35;239.52;;;223.90;;
82255;SDS011;72145;34.434;-117.370;2023-09-19T03:27:09;231.02;;;215.73;;
82255;SDS011;72145;34.434;-117.370;2023-09-19T03:27:42;237.00;;;221.57;;
82255;SDS011;72145;34.434;-117.370;2023-09-19T03:28:16;204.07;;;189.88;;
82255;SDS011;72145;34.434;-117.370;2023-09-19T03:28:49;236.00;;;220.82;;
82255;SDS011;72145;34.434;-117.370;2023-09-19T03:29:22;225.40;;;210.75;;
82255;SDS011;72145;34.434;-117.370;2023-09-19T03:29:56;196.98;;;183.35;;
82255;SDS011;72145;34.434;-117.370;2023-09-19T03:30:30;234.98;;;219.75;;
82255;SDS011;72145;34.434;-117.370;2023-09-19T03:31:06;246.95;;;231.75;;
82255;SDS011;72145;34.434;-117.370;2023-09-19T03:31:41;234.98;;;219.77;;
82255;SDS011;72145;34.434;-117.370;2023-09-19T03:32:14;197.93;;;184.23;;
82255;SDS011;72145;34.434;-117.370;2023-09-19T03:32:50;223.25;;;208.90;;
82255;SDS011;72145;34.434;-117.370;2023-09-19T03:33:23;182.98;;;169.77;;
82255;SDS011;72145;34.434;-117.370;2023-09-19T03:33:59;180.18;;;166.90;;
82255;SDS011;72145;34.434;-117.370;2023-09-19T03:34:36;190.55;;;176.45;;
82255;SDS011;72145;34.434;-117.370;2023-09-19T03:35:16;236.95;;;221.95;;
82255;SDS011;72145;34.434;-117.370;2023-09-19T03:35:53;230.43;;;215.70;;
82255;SDS011;72145;34.434;-117.370;2023-09-19T03:36:28;205.05;;;190.98;;
82255;SDS011;72145;34.434;-117.370;2023-09-19T03:37:02;228.60;;;213.93;;
82255;SDS011;72145;34.434;-117.370;2023-09-19T03:37:39;190.60;;;176.77;;
82255;SDS011;72145;34.434;-117.370;2023-09-19T03:38:22;195.30;;;181.70;;
82255;SDS011;72145;34.434;-117.370;2023-09-19T03:38:58;177.57;;;164.93;;